Time;durP1;ratioP1;P1;durP2;ratioP2;P2;SDS_P1;SDS_P2;PMS_P1;PMS_P2;Temp;Humidity;BMP_temperature;BMP_pressure;BME280_temperature;BME280_humidity;BME280_pressure;Samples;Min_cycle;Max_cycle;Signal;HPM_P1;HPM_P2
2023/04/16 00:01:39;;;;;;;72.47;28.15;;;8.10;99.90;;;;;;5073929;28;20047;-55
2023/04/16 00:04:05;;;;;;;83.03;30.02;;;8.10;99.90;;;;;;5092013;28;20559;-55
2023/04/16 00:06:31;;;;;;;81.78;28.63;;;7.90;99.90;;;;;;5073374;28;20039;-53
2023/04/16 00:08:57;;;;;;;74.70;27.88;;;8.00;99.90;;;;;;5093169;27;20104;-55
2023/04/16 00:11:22;;;;;;;68.60;28.75;;;8.00;99.90;;;;;;5092850;27;20086;-54
2023/04/16 00:13:48;;;;;;;79.10;29.27;;;8.20;99.90;;;;;;5092120;28;20039;-53
2023/04/16 00:16:14;;;;;;;74.15;30.38;;;8.00;99.90;;;;;;5093665;28;20062;-55
2023/04/16 00:18:40;;;;;;;76.53;28.33;;;9.10;99.90;;;;;;5092178;28;20059;-56
2023/04/16 00:21:06;;;;;;;79.93;29.88;;;7.90;99.90;;;;;;5075553;28;20295;-54
2023/04/16 00:23:32;;;;;;;74.40;27.73;;;8.10;99.90;;;;;;5094033;27;20652;-54
2023/04/16 00:26:01;;;;;;;69.30;28.73;;;8.00;99.90;;;;;;5075458;28;20044;-54
2023/04/16 00:28:26;;;;;;;69.07;29.20;;;7.90;99.90;;;;;;5093310;28;20510;-55
2023/04/16 00:30:53;;;;;;;88.75;30.50;;;8.10;99.90;;;;;;5093421;28;20052;-56
2023/04/16 00:33:19;;;;;;;66.43;26.13;;;9.00;99.90;;;;;;5091464;28;20036;-53
2023/04/16 00:35:45;;;;;;;69.10;27.52;;;8.60;99.90;;;;;;5093825;28;20134;-56
2023/04/16 00:38:11;;;;;;;73.30;27.08;;;7.90;99.90;;;;;;5092439;28;20031;-55
2023/04/16 00:40:37;;;;;;;67.25;25.83;;;8.00;99.90;;;;;;5093986;28;20078;-55
2023/04/16 00:43:03;;;;;;;60.85;24.80;;;7.80;99.90;;;;;;5092852;28;20035;-54
2023/04/16 00:45:29;;;;;;;63.08;25.05;;;7.80;99.90;;;;;;5075373;28;20046;-55
2023/04/16 00:47:55;;;;;;;76.45;27.85;;;8.00;99.90;;;;;;5092130;28;20176;-56
2023/04/16 00:50:22;;;;;;;83.25;28.00;;;7.90;99.90;;;;;;5092590;28;20183;-55
2023/04/16 00:52:48;;;;;;;59.60;24.55;;;8.00;99.90;;;;;;5097363;27;20052;-56
2023/04/16 00:55:16;;;;;;;66.80;24.48;;;8.50;99.90;;;;;;5096970;27;20051;-56
2023/04/16 00:57:42;;;;;;;67.45;25.92;;;8.10;99.90;;;;;;5096380;27;21216;-56
2023/04/16 01:00:08;;;;;;;64.90;24.58;;;7.90;99.90;;;;;;5095714;27;20042;-55
2023/04/16 01:02:34;;;;;;;72.88;26.50;;;8.20;99.90;;;;;;5095785;27;20195;-56
2023/04/16 01:05:01;;;;;;;69.93;25.13;;;9.30;99.90;;;;;;5096843;27;20465;-55
2023/04/16 01:07:27;;;;;;;74.53;25.80;;;8.20;99.90;;;;;;5095362;27;20214;-55
2023/04/16 01:09:52;;;;;;;76.07;27.40;;;7.90;99.90;;;;;;5096245;27;20032;-56
2023/04/16 01:12:18;;;;;;;78.88;28.92;;;9.00;99.90;;;;;;5095303;27;20594;-56
2023/04/16 01:14:44;;;;;;;73.32;25.25;;;7.90;99.90;;;;;;5096305;28;20054;-56
2023/04/16 01:17:10;;;;;;;72.63;28.90;;;7.60;99.90;;;;;;5095572;27;20339;-56
2023/04/16 01:19:37;;;;;;;76.90;28.13;;;7.90;99.90;;;;;;5077067;28;20047;-56
2023/04/16 01:22:03;;;;;;;82.75;29.52;;;8.70;99.90;;;;;;5096470;28;20040;-56
2023/04/16 01:24:30;;;;;;;85.53;31.17;;;8.50;99.90;;;;;;5096366;27;20115;-55
2023/04/16 01:26:58;;;;;;;64.85;25.95;;;7.80;99.90;;;;;;5095535;27;20127;-56
2023/04/16 01:29:24;;;;;;;80.95;29.15;;;7.80;99.90;;;;;;5094837;27;20098;-56
2023/04/16 01:31:50;;;;;;;61.08;27.45;;;8.00;99.90;;;;;;5095022;27;20044;-55
2023/04/16 01:34:15;;;;;;;93.90;31.55;;;7.90;99.90;;;;;;5078223;28;20047;-56
2023/04/16 01:36:41;;;;;;;81.97;30.48;;;7.70;99.90;;;;;;5096268;27;20127;-56
2023/04/16 01:39:10;;;;;;;73.47;28.98;;;7.90;99.90;;;;;;5095428;27;20165;-55
2023/04/16 01:41:36;;;;;;;61.28;26.67;;;7.90;99.90;;;;;;5094846;27;20099;-56
2023/04/16 01:44:02;;;;;;;53.95;26.45;;;8.10;99.90;;;;;;5077280;28;20963;-55
2023/04/16 01:46:29;;;;;;;63.35;27.33;;;7.70;99.90;;;;;;5077807;27;20082;-56
2023/04/16 01:48:56;;;;;;;59.03;26.75;;;7.70;99.90;;;;;;5095354;28;20168;-56
2023/04/16 01:51:22;;;;;;;64.53;27.00;;;9.50;99.90;;;;;;5096828;27;20036;-55
2023/04/16 01:53:49;;;;;;;65.03;28.42;;;7.80;99.90;;;;;;5097838;27;20040;-56
2023/04/16 01:56:15;;;;;;;63.38;25.98;;;8.80;99.90;;;;;;5096852;27;20733;-55
2023/04/16 01:58:41;;;;;;;58.42;26.75;;;7.80;99.90;;;;;;5096538;27;20100;-56
2023/04/16 02:01:08;;;;;;;62.97;26.90;;;7.60;99.90;;;;;;5077331;28;20167;-55
2023/04/16 02:03:34;;;;;;;79.10;30.52;;;7.90;99.90;;;;;;5097525;27;20669;-54
2023/04/16 02:06:00;;;;;;;67.95;28.48;;;7.80;99.90;;;;;;5047763;28;20040;-55
2023/04/16 02:08:26;;;;;;;60.88;28.02;;;7.70;99.90;;;;;;5094827;27;20039;-54
2023/04/16 02:10:52;;;;;;;70.82;28.70;;;7.70;99.90;;;;;;5094615;27;20036;-54
2023/04/16 02:13:17;;;;;;;78.32;30.52;;;7.70;99.90;;;;;;5096190;27;20043;-54
2023/04/16 02:15:47;;;;;;;60.65;28.38;;;7.90;99.90;;;;;;5096240;27;20147;-53
2023/04/16 02:18:13;;;;;;;70.78;29.15;;;7.70;99.90;;;;;;5094382;27;20048;-54
2023/04/16 02:20:44;;;;;;;70.28;28.50;;;7.70;99.90;;;;;;5094302;27;20158;-55
2023/04/16 02:23:10;;;;;;;64.75;27.83;;;7.60;99.90;;;;;;5077004;27;20050;-55
2023/04/16 02:25:44;;;;;;;78.47;30.23;;;7.70;99.90;;;;;;5095531;27;20416;-55
2023/04/16 02:28:11;;;;;;;63.65;27.27;;;7.60;99.90;;;;;;5076911;27;20564;-55
2023/04/16 02:30:38;;;;;;;74.22;28.73;;;7.60;99.90;;;;;;5094506;27;20126;-55
2023/04/16 02:33:06;;;;;;;84.72;30.77;;;7.80;99.90;;;;;;5077171;28;20040;-54
2023/04/16 02:35:33;;;;;;;69.22;29.05;;;7.70;99.90;;;;;;5093357;27;20110;-55
2023/04/16 02:37:59;;;;;;;64.93;28.52;;;7.70;99.90;;;;;;5094058;27;20047;-55
2023/04/16 02:40:25;;;;;;;70.82;30.63;;;8.60;99.90;;;;;;5093397;28;20436;-54
2023/04/16 02:42:51;;;;;;;88.85;31.17;;;8.40;99.90;;;;;;5094567;27;20039;-55
2023/04/16 02:45:17;;;;;;;85.95;30.50;;;8.30;99.90;;;;;;5094209;27;20071;-54
2023/04/16 02:47:43;;;;;;;64.05;29.83;;;7.70;99.90;;;;;;5074690;28;20475;-55
2023/04/16 02:50:09;;;;;;;71.45;30.45;;;8.30;99.90;;;;;;5092626;27;20039;-55
2023/04/16 02:52:35;;;;;;;69.45;28.98;;;7.70;99.90;;;;;;5093666;28;20047;-54
2023/04/16 02:55:00;;;;;;;64.68;29.63;;;7.70;99.90;;;;;;5094076;27;20065;-55
2023/04/16 02:57:26;;;;;;;72.68;30.63;;;7.70;99.90;;;;;;5092868;27;20040;-54
2023/04/16 02:59:52;;;;;;;70.50;29.42;;;8.10;99.90;;;;;;5092398;27;20492;-53
2023/04/16 03:02:18;;;;;;;81.40;29.15;;;7.70;99.90;;;;;;5093406;27;20221;-55
2023/04/16 03:04:43;;;;;;;74.22;29.20;;;7.60;99.90;;;;;;5095324;27;20043;-55
2023/04/16 03:07:11;;;;;;;73.20;29.45;;;8.40;99.90;;;;;;5095848;27;20045;-55
2023/04/16 03:09:37;;;;;;;89.03;30.45;;;7.60;99.90;;;;;;5077079;28;20072;-55
2023/04/16 03:12:03;;;;;;;87.25;30.42;;;7.70;99.90;;;;;;5094432;27;20500;-53
2023/04/16 03:14:29;;;;;;;75.80;29.15;;;7.60;99.90;;;;;;5095383;27;20050;-55
2023/04/16 03:16:55;;;;;;;94.35;32.00;;;7.60;99.90;;;;;;5094445;28;20540;-55
2023/04/16 03:19:21;;;;;;;75.78;29.63;;;8.50;99.90;;;;;;5094171;27;20132;-55
2023/04/16 03:21:47;;;;;;;109.22;33.90;;;7.50;99.90;;;;;;5094283;27;20086;-55
2023/04/16 03:24:13;;;;;;;83.47;29.33;;;7.60;99.90;;;;;;5095894;27;20583;-55
2023/04/16 03:26:39;;;;;;;112.55;31.90;;;7.60;99.90;;;;;;5093819;27;20508;-55
2023/04/16 03:29:05;;;;;;;78.57;27.92;;;7.90;99.90;;;;;;5075581;28;20051;-54
2023/04/16 03:31:31;;;;;;;82.60;30.27;;;7.80;99.90;;;;;;5093669;28;21163;-54
2023/04/16 03:33:57;;;;;;;83.22;30.15;;;8.00;99.90;;;;;;5094163;27;20042;-55
2023/04/16 03:36:22;;;;;;;71.78;30.40;;;7.60;99.90;;;;;;5075233;28;20059;-55
2023/04/16 03:38:48;;;;;;;78.95;29.08;;;7.60;99.90;;;;;;5093124;27;20048;-55
2023/04/16 03:41:14;;;;;;;85.97;30.75;;;7.60;99.90;;;;;;5093633;27;20054;-56
2023/04/16 03:43:40;;;;;;;74.85;28.25;;;7.50;99.90;;;;;;5075980;28;20063;-55
2023/04/16 03:46:06;;;;;;;73.43;26.88;;;7.70;99.90;;;;;;5074958;28;20036;-56
2023/04/16 03:48:32;;;;;;;83.30;29.95;;;7.70;99.90;;;;;;5093539;27;20032;-55
2023/04/16 03:50:57;;;;;;;80.35;29.13;;;7.70;99.90;;;;;;5073890;28;20043;-55
2023/04/16 03:53:23;;;;;;;69.22;27.70;;;7.70;99.90;;;;;;5096413;27;20067;-54
2023/04/16 03:55:50;;;;;;;88.00;30.75;;;7.70;99.90;;;;;;5093501;28;20087;-55
2023/04/16 03:58:16;;;;;;;89.90;30.42;;;7.40;99.90;;;;;;5093188;28;20100;-55
2023/04/16 04:00:42;;;;;;;66.40;26.33;;;9.40;99.90;;;;;;5073904;28;20036;-56
2023/04/16 04:03:12;;;;;;;75.40;28.35;;;8.00;99.90;;;;;;5095114;28;20032;-55
2023/04/16 04:05:39;;;;;;;70.53;27.50;;;8.60;99.90;;;;;;5076396;28;20048;-55
2023/04/16 04:08:05;;;;;;;70.90;26.98;;;7.70;99.90;;;;;;5075456;28;20097;-53
2023/04/16 04:10:34;;;;;;;78.20;26.33;;;7.70;99.90;;;;;;5093420;28;20047;-55
2023/04/16 04:13:04;;;;;;;74.82;29.13;;;7.60;99.90;;;;;;5092938;28;20468;-53
2023/04/16 04:15:30;;;;;;;70.40;23.17;;;7.60;99.90;;;;;;5093413;28;20042;-55
2023/04/16 04:17:56;;;;;;;74.43;27.63;;;7.60;99.90;;;;;;5076901;28;20036;-55
2023/04/16 04:20:22;;;;;;;68.70;26.05;;;9.40;99.90;;;;;;5093637;27;20043;-55
2023/04/16 04:22:49;;;;;;;74.88;26.05;;;7.60;99.90;;;;;;5094486;28;20031;-54
2023/04/16 04:25:16;;;;;;;66.15;25.73;;;7.50;99.90;;;;;;5092492;28;20043;-54
2023/04/16 04:27:42;;;;;;;69.20;25.35;;;8.90;99.90;;;;;;5095184;28;20377;-54
2023/04/16 04:30:08;;;;;;;58.25;23.42;;;7.40;99.90;;;;;;5093865;28;20040;-54
2023/04/16 04:32:34;;;;;;;55.55;22.42;;;7.50;99.90;;;;;;5094014;28;20088;-53
2023/04/16 04:35:01;;;;;;;58.65;22.75;;;8.90;99.90;;;;;;5093452;28;20500;-54
2023/04/16 04:37:27;;;;;;;75.97;25.88;;;7.60;99.90;;;;;;5094059;28;20048;-54
2023/04/16 04:39:53;;;;;;;67.50;23.90;;;8.00;99.90;;;;;;5094487;28;20054;-55
2023/04/16 04:42:20;;;;;;;107.88;27.95;;;8.90;99.90;;;;;;5091754;28;20839;-55
2023/04/16 04:44:46;;;;;;;99.20;26.25;;;7.50;99.90;;;;;;5074019;28;20089;-55
2023/04/16 04:47:13;;;;;;;75.00;24.65;;;8.00;99.90;;;;;;5093745;28;20039;-55
2023/04/16 04:49:39;;;;;;;82.30;25.40;;;7.50;99.90;;;;;;5092921;28;20101;-55
2023/04/16 04:52:05;;;;;;;55.97;22.73;;;7.70;99.90;;;;;;5092500;28;20049;-55
2023/04/16 04:54:31;;;;;;;56.38;22.98;;;7.60;99.90;;;;;;5092516;28;20113;-54
2023/04/16 04:56:58;;;;;;;73.40;24.85;;;8.40;99.90;;;;;;5092419;28;20059;-53
2023/04/16 04:59:24;;;;;;;122.57;26.63;;;8.60;99.90;;;;;;5075372;28;20054;-56
2023/04/16 05:01:50;;;;;;;54.13;22.63;;;8.20;99.90;;;;;;5093308;28;20055;-54
2023/04/16 05:04:16;;;;;;;67.55;21.75;;;7.50;99.90;;;;;;5090606;28;20143;-54
2023/04/16 05:06:41;;;;;;;63.53;24.75;;;8.00;99.90;;;;;;5093586;28;20500;-55
2023/04/16 05:09:10;;;;;;;125.05;27.95;;;9.20;99.90;;;;;;5090962;28;20053;-55
2023/04/16 05:11:40;;;;;;;123.78;27.92;;;7.50;99.90;;;;;;5091723;28;20047;-53
2023/04/16 05:14:07;;;;;;;101.90;26.33;;;7.90;99.90;;;;;;5091707;28;20039;-56
2023/04/16 05:16:35;;;;;;;100.50;24.55;;;7.70;99.90;;;;;;5091406;28;20101;-55
2023/04/16 05:19:01;;;;;;;91.43;23.65;;;7.60;99.90;;;;;;5091513;28;20071;-56
2023/04/16 05:21:27;;;;;;;81.70;23.50;;;7.70;99.90;;;;;;5092507;28;20431;-54
2023/04/16 05:23:53;;;;;;;86.65;25.25;;;7.80;99.90;;;;;;5074386;28;20048;-55
2023/04/16 05:26:19;;;;;;;72.03;22.70;;;9.20;99.90;;;;;;5091660;28;20408;-54
2023/04/16 05:28:45;;;;;;;96.25;25.40;;;7.90;99.90;;;;;;5074183;28;20075;-54
2023/04/16 05:31:11;;;;;;;61.08;23.23;;;7.80;99.90;;;;;;5073495;28;20541;-55
2023/04/16 05:33:36;;;;;;;62.38;21.67;;;7.80;99.90;;;;;;5090693;28;20732;-53
2023/04/16 05:36:02;;;;;;;77.82;24.10;;;7.70;99.90;;;;;;5073616;28;20422;-56
2023/04/16 05:38:28;;;;;;;64.43;22.00;;;7.80;99.90;;;;;;5096915;27;20047;-55
2023/04/16 05:40:54;;;;;;;77.82;24.40;;;7.80;99.90;;;;;;5096242;27;20036;-55
2023/04/16 05:43:20;;;;;;;75.03;24.08;;;8.00;99.90;;;;;;5096017;27;20028;-56
2023/04/16 05:45:46;;;;;;;66.15;23.42;;;7.80;99.90;;;;;;5096496;27;20096;-55
2023/04/16 05:48:12;;;;;;;69.38;23.48;;;9.40;99.90;;;;;;5096197;27;20036;-55
2023/04/16 05:50:38;;;;;;;57.55;22.23;;;8.20;99.90;;;;;;5078467;28;20059;-55
2023/04/16 05:53:06;;;;;;;71.03;22.55;;;8.10;99.90;;;;;;5097209;27;20415;-55
2023/04/16 05:55:32;;;;;;;68.10;24.40;;;8.20;99.90;;;;;;5094771;27;20048;-54
2023/04/16 05:57:58;;;;;;;64.50;21.63;;;8.20;99.90;;;;;;5097414;27;20044;-54
2023/04/16 06:00:24;;;;;;;67.53;23.50;;;8.30;99.90;;;;;;5095328;27;20153;-54
2023/04/16 06:02:50;;;;;;;69.25;23.98;;;7.50;99.90;;;;;;5095589;27;20048;-55
2023/04/16 06:05:16;;;;;;;75.25;26.42;;;8.10;99.90;;;;;;5075972;28;20489;-53
2023/04/16 06:07:42;;;;;;;61.53;23.15;;;8.30;99.90;;;;;;5078514;28;20053;-55
2023/04/16 06:10:08;;;;;;;62.95;21.92;;;8.40;99.90;;;;;;5094663;28;20040;-53
2023/04/16 06:12:33;;;;;;;60.90;22.75;;;8.20;99.90;;;;;;5095588;27;20044;-54
2023/04/16 06:15:00;;;;;;;57.90;22.35;;;8.50;99.90;;;;;;5094870;27;20307;-55
2023/04/16 06:17:26;;;;;;;77.22;23.67;;;8.60;99.90;;;;;;5095821;27;20184;-55
2023/04/16 06:19:51;;;;;;;60.20;21.20;;;8.70;99.90;;;;;;5076439;28;20467;-51
2023/04/16 06:22:17;;;;;;;54.22;20.05;;;8.60;99.90;;;;;;5094566;27;20050;-54
2023/04/16 06:24:43;;;;;;;58.60;21.67;;;8.40;99.90;;;;;;5096653;27;20039;-54
2023/04/16 06:27:09;;;;;;;63.35;23.38;;;8.50;99.90;;;;;;5076395;27;20067;-54
2023/04/16 06:29:35;;;;;;;69.93;24.83;;;8.60;99.90;;;;;;5094800;27;20043;-54
2023/04/16 06:32:02;;;;;;;57.28;21.33;;;8.60;99.90;;;;;;5076670;27;20484;-53
2023/04/16 06:34:28;;;;;;;60.92;22.10;;;9.80;99.90;;;;;;5076621;28;20088;-52
2023/04/16 06:36:54;;;;;;;57.38;22.38;;;8.70;99.90;;;;;;5058670;28;20039;-55
2023/04/16 06:39:20;;;;;;;49.38;21.42;;;9.00;99.90;;;;;;5075724;28;20387;-55
2023/04/16 06:41:49;;;;;;;52.20;19.92;;;8.70;99.90;;;;;;5095368;27;20090;-52
2023/04/16 06:44:15;;;;;;;56.88;23.50;;;8.80;99.90;;;;;;5094892;27;20446;-55
2023/04/16 06:46:41;;;;;;;59.53;22.48;;;9.20;99.90;;;;;;5094828;27;20542;-54
2023/04/16 06:49:07;;;;;;;55.78;21.02;;;8.80;99.90;;;;;;5092814;27;20503;-55
2023/04/16 06:51:32;;;;;;;52.45;21.10;;;8.90;99.90;;;;;;5094324;27;20872;-54
2023/04/16 06:53:58;;;;;;;43.60;20.10;;;9.00;99.90;;;;;;5095748;27;20500;-56
2023/04/16 06:56:24;;;;;;;53.15;21.58;;;9.30;99.90;;;;;;5074511;28;20284;-53
2023/04/16 06:58:50;;;;;;;51.42;19.98;;;9.20;99.90;;;;;;5094847;27;20047;-53
2023/04/16 07:01:17;;;;;;;44.10;19.52;;;9.30;99.90;;;;;;5075501;28;21011;-55
2023/04/16 07:03:43;;;;;;;47.42;20.65;;;11.30;99.90;;;;;;5076439;28;20491;-55
2023/04/16 07:06:09;;;;;;;41.10;18.95;;;9.70;99.90;;;;;;5094798;27;20042;-56
2023/04/16 07:08:35;;;;;;;41.13;19.15;;;10.00;99.90;;;;;;5094346;27;20650;-56
2023/04/16 07:11:00;;;;;;;42.90;18.95;;;9.90;99.90;;;;;;5095767;27;20046;-54
2023/04/16 07:13:26;;;;;;;38.70;18.08;;;9.80;99.90;;;;;;5096258;27;20115;-55
2023/04/16 07:15:52;;;;;;;46.38;18.92;;;9.90;99.90;;;;;;5094592;28;20031;-55
2023/04/16 07:18:18;;;;;;;38.95;19.38;;;10.10;99.90;;;;;;5094142;27;20043;-55
2023/04/16 07:20:44;;;;;;;45.60;18.20;;;9.80;99.90;;;;;;5096021;28;20044;-55
2023/04/16 07:23:10;;;;;;;43.22;16.77;;;9.80;99.90;;;;;;5094706;27;20063;-55
2023/04/16 07:25:35;;;;;;;44.45;18.30;;;9.90;99.90;;;;;;5095120;27;20523;-55
2023/04/16 07:28:02;;;;;;;53.33;20.33;;;9.90;99.90;;;;;;5094174;27;20043;-55
2023/04/16 07:30:33;;;;;;;49.67;18.88;;;10.00;99.90;;;;;;5094871;27;20146;-55
2023/04/16 07:33:02;;;;;;;44.22;16.95;;;10.00;99.90;;;;;;5077058;27;20127;-56
2023/04/16 07:35:29;;;;;;;41.72;18.00;;;10.10;99.90;;;;;;5075892;28;20047;-55
2023/04/16 07:37:55;;;;;;;42.33;17.58;;;10.30;99.90;;;;;;5093462;27;20503;-55
2023/04/16 07:40:21;;;;;;;37.00;17.58;;;10.40;99.90;;;;;;5092964;27;20023;-55
2023/04/16 07:42:47;;;;;;;41.88;16.65;;;10.30;99.90;;;;;;5092101;28;20054;-54
2023/04/16 07:45:13;;;;;;;34.67;16.17;;;10.30;99.90;;;;;;5092810;28;20035;-55
2023/04/16 07:47:39;;;;;;;42.30;15.98;;;10.30;99.90;;;;;;5094127;27;20440;-55
2023/04/16 07:50:05;;;;;;;36.85;15.63;;;10.50;99.90;;;;;;5091735;27;20126;-56
2023/04/16 07:52:31;;;;;;;41.15;17.55;;;10.40;99.90;;;;;;5092933;27;20044;-55
2023/04/16 07:54:57;;;;;;;35.42;15.88;;;10.60;99.90;;;;;;5059041;28;20385;-56
2023/04/16 07:57:22;;;;;;;34.17;15.98;;;10.60;99.90;;;;;;5092397;28;20054;-56
2023/04/16 07:59:48;;;;;;;34.70;16.08;;;10.90;99.90;;;;;;5092287;28;20054;-55
2023/04/16 08:02:15;;;;;;;37.65;14.95;;;11.10;99.90;;;;;;5093510;27;20086;-55
2023/04/16 08:04:42;;;;;;;37.67;15.38;;;11.50;99.90;;;;;;5093542;27;20062;-55
2023/04/16 08:07:08;;;;;;;35.30;15.07;;;11.80;99.90;;;;;;5074166;28;20397;-56
2023/04/16 08:09:35;;;;;;;31.88;13.52;;;12.20;99.90;;;;;;5056781;28;20054;-55
2023/04/16 08:12:01;;;;;;;42.83;15.38;;;12.50;99.90;;;;;;5074593;28;20399;-55
2023/04/16 08:14:27;;;;;;;35.47;14.25;;;12.80;99.90;;;;;;5091663;28;20198;-55
2023/04/16 08:16:53;;;;;;;38.95;15.73;;;13.00;99.90;;;;;;5092900;28;20043;-54
2023/04/16 08:19:19;;;;;;;32.97;14.05;;;13.10;99.90;;;;;;5093386;28;20050;-55
2023/04/16 08:21:45;;;;;;;30.55;13.18;;;12.90;99.90;;;;;;5075863;28;20050;-55
2023/04/16 08:24:11;;;;;;;30.73;14.18;;;14.10;99.90;;;;;;5075460;28;20039;-55
2023/04/16 08:26:36;;;;;;;35.88;13.15;;;13.00;99.90;;;;;;5094061;27;20452;-50
2023/04/16 08:29:02;;;;;;;28.33;12.52;;;13.50;99.90;;;;;;5076170;28;20035;-54
2023/04/16 08:31:28;;;;;;;31.60;13.40;;;13.60;99.90;;;;;;5093887;28;20040;-53
2023/04/16 08:33:54;;;;;;;27.92;12.88;;;13.70;99.90;;;;;;5093311;28;20054;-54
2023/04/16 08:36:20;;;;;;;32.78;13.32;;;13.70;99.90;;;;;;5093379;28;20097;-55
2023/04/16 08:38:45;;;;;;;33.33;13.70;;;13.70;99.90;;;;;;5091819;28;20043;-57
2023/04/16 08:41:12;;;;;;;31.95;13.63;;;13.70;99.90;;;;;;5094733;28;20565;-55
2023/04/16 08:43:43;;;;;;;33.30;14.48;;;13.60;99.90;;;;;;5077096;28;20419;-55
2023/04/16 08:46:10;;;;;;;24.52;12.80;;;13.60;99.90;;;;;;5093651;28;20535;-55
2023/04/16 08:48:36;;;;;;;27.30;13.00;;;13.90;99.90;;;;;;5093159;28;20046;-56
2023/04/16 08:51:02;;;;;;;29.17;13.05;;;13.90;99.90;;;;;;5092839;28;20042;-56
2023/04/16 08:54:04;;;;;;;24.88;12.40;;;14.00;99.90;;;;;;5094346;28;20435;-56
2023/04/16 08:56:31;;;;;;;32.70;13.15;;;14.00;99.90;;;;;;5050930;28;20052;-56
2023/04/16 08:58:59;;;;;;;24.70;12.70;;;14.00;99.90;;;;;;5093444;28;20126;-55
2023/04/16 09:01:26;;;;;;;29.83;12.88;;;14.10;99.90;;;;;;5092414;28;20047;-55
2023/04/16 09:03:52;;;;;;;27.85;13.68;;;14.20;99.90;;;;;;5092913;28;20864;-56
2023/04/16 09:06:18;;;;;;;24.15;11.77;;;14.20;99.90;;;;;;5093461;28;20036;-55
2023/04/16 09:08:47;;;;;;;31.02;13.05;;;16.40;99.90;;;;;;5093857;28;20046;-54
2023/04/16 09:11:17;;;;;;;24.42;12.25;;;14.00;99.90;;;;;;5093493;28;20043;-55
2023/04/16 09:13:43;;;;;;;31.75;12.82;;;14.30;99.90;;;;;;5096484;27;20046;-55
2023/04/16 09:16:11;;;;;;;33.10;14.77;;;14.50;99.90;;;;;;5098032;27;20419;-54
2023/04/16 09:18:37;;;;;;;27.02;13.02;;;14.40;99.90;;;;;;5095886;27;20044;-55
2023/04/16 09:21:04;;;;;;;29.27;13.68;;;14.20;99.90;;;;;;5097983;27;20043;-55
2023/04/16 09:23:30;;;;;;;29.90;14.00;;;13.90;99.90;;;;;;5096776;27;20050;-55
2023/04/16 09:25:59;;;;;;;26.77;12.63;;;14.00;99.90;;;;;;5098378;27;20032;-55
2023/04/16 09:28:47;;;;;;;37.80;15.70;;;14.10;99.90;;;;;;5095878;28;20055;-55
2023/04/16 09:31:15;;;;;;;40.90;19.30;;;14.00;99.90;;;;;;5096482;28;20043;-55
2023/04/16 09:33:44;;;;;;;35.97;13.80;;;14.10;99.90;;;;;;5095525;28;20055;-55
2023/04/16 09:36:10;;;;;;;25.73;12.40;;;14.20;99.90;;;;;;5096008;27;20071;-55
2023/04/16 09:38:46;;;;;;;30.00;13.07;;;14.00;99.90;;;;;;5095879;27;20200;-55
2023/04/16 09:41:15;;;;;;;34.83;13.57;;;14.10;99.90;;;;;;5077919;27;20121;-54
2023/04/16 09:43:41;;;;;;;29.58;12.93;;;14.20;99.90;;;;;;5096449;27;20464;-54
2023/04/16 09:46:11;;;;;;;29.02;13.00;;;14.10;99.90;;;;;;5096287;27;20063;-53
2023/04/16 09:48:37;;;;;;;28.63;13.45;;;14.20;99.90;;;;;;5094924;28;20282;-52
2023/04/16 09:51:05;;;;;;;29.42;12.27;;;14.20;99.90;;;;;;5097231;27;20051;-53
2023/04/16 09:53:31;;;;;;;31.80;13.80;;;14.20;99.90;;;;;;5097151;27;20385;-55
2023/04/16 09:55:58;;;;;;;27.73;13.27;;;14.40;99.90;;;;;;5097534;27;20142;-55
2023/04/16 09:58:25;;;;;;;32.22;13.45;;;14.30;99.90;;;;;;5096087;27;20506;-54
2023/04/16 10:01:01;;;;;;;30.13;12.75;;;14.30;99.90;;;;;;5095402;27;21077;-55
2023/04/16 10:03:35;;;;;;;27.70;13.63;;;14.30;99.90;;;;;;5096993;27;20051;-52
2023/04/16 10:06:07;;;;;;;22.40;12.48;;;14.50;99.90;;;;;;5096421;27;20345;-53
2023/04/16 10:08:32;;;;;;;28.33;14.20;;;14.20;99.90;;;;;;5096395;27;20043;-55
2023/04/16 10:10:58;;;;;;;31.13;13.65;;;14.50;99.90;;;;;;5078394;28;20558;-55
2023/04/16 10:13:26;;;;;;;33.88;14.07;;;14.40;99.90;;;;;;5094887;27;20032;-52
2023/04/16 10:15:56;;;;;;;32.50;14.38;;;14.30;99.90;;;;;;5096216;28;20047;-54
2023/04/16 10:18:22;;;;;;;30.58;14.13;;;14.40;99.90;;;;;;5096006;27;20051;-54
2023/04/16 10:20:51;;;;;;;31.25;13.98;;;14.30;99.90;;;;;;5096674;27;20044;-55
2023/04/16 10:23:20;;;;;;;26.13;13.57;;;14.30;99.90;;;;;;5077610;28;20176;-55
2023/04/16 10:25:47;;;;;;;33.17;13.73;;;14.20;99.90;;;;;;5096483;27;20040;-54
2023/04/16 10:28:13;;;;;;;33.42;14.60;;;14.00;99.90;;;;;;5077661;28;20039;-53
2023/04/16 10:30:41;;;;;;;31.73;14.85;;;13.80;99.90;;;;;;5095522;28;20396;-53
2023/04/16 10:33:08;;;;;;;26.70;14.15;;;13.80;99.90;;;;;;5096048;27;20120;-53
2023/04/16 10:35:39;;;;;;;29.45;14.73;;;13.70;99.90;;;;;;5095523;27;20389;-54
2023/04/16 10:38:24;;;;;;;25.92;13.60;;;13.60;99.90;;;;;;5095817;28;20079;-54
2023/04/16 10:40:57;;;;;;;30.17;13.57;;;13.60;99.90;;;;;;5095326;27;20043;-54
2023/04/16 10:43:24;;;;;;;29.05;14.38;;;13.40;99.90;;;;;;5077097;28;20044;-53
2023/04/16 10:45:50;;;;;;;29.73;13.52;;;13.60;99.90;;;;;;5094002;27;20043;-54
2023/04/16 10:48:17;;;;;;;26.83;13.75;;;15.00;99.90;;;;;;5093690;27;20031;-55
2023/04/16 10:50:56;;;;;;;25.58;13.10;;;13.30;99.90;;;;;;5094001;27;20138;-55
2023/04/16 10:53:25;;;;;;;28.13;14.45;;;13.70;99.90;;;;;;5094079;27;20039;-53
2023/04/16 10:55:57;;;;;;;35.47;14.85;;;13.40;99.90;;;;;;5094992;27;20105;-54
2023/04/16 10:58:31;;;;;;;32.47;14.18;;;13.30;99.90;;;;;;5093747;27;20039;-54
2023/04/16 11:01:15;;;;;;;30.58;13.88;;;13.30;99.90;;;;;;5075969;27;20046;-54
2023/04/16 11:03:43;;;;;;;31.25;15.18;;;13.30;99.90;;;;;;5093798;28;20052;-54
2023/04/16 11:06:25;;;;;;;39.25;15.13;;;13.20;99.90;;;;;;5094805;27;20101;-55
2023/04/16 11:08:51;;;;;;;37.53;14.85;;;13.10;99.90;;;;;;5096914;27;20212;-54
2023/04/16 11:11:18;;;;;;;38.13;16.88;;;14.50;99.90;;;;;;5096088;27;20051;-54
2023/04/16 11:13:45;;;;;;;36.35;15.23;;;13.10;99.90;;;;;;5095046;27;20055;-54
2023/04/16 11:16:12;;;;;;;29.80;14.75;;;12.90;99.90;;;;;;5095680;27;20480;-54
2023/04/16 11:18:41;;;;;;;33.22;15.23;;;13.00;99.90;;;;;;5095165;27;20463;-54
2023/04/16 11:21:09;;;;;;;32.03;15.25;;;13.10;99.90;;;;;;5074732;27;20051;-54
2023/04/16 11:23:46;;;;;;;34.08;17.00;;;12.60;99.90;;;;;;5094425;27;20056;-54
2023/04/16 11:26:32;;;;;;;33.20;14.90;;;13.00;99.90;;;;;;5096352;27;20047;-53
2023/04/16 11:28:59;;;;;;;30.10;15.10;;;13.00;99.90;;;;;;5077021;28;20515;-55
2023/04/16 11:31:26;;;;;;;30.85;15.27;;;12.90;99.90;;;;;;5096001;27;20044;-54
2023/04/16 11:33:51;;;;;;;30.50;13.93;;;12.90;99.90;;;;;;5095377;28;20048;-53
2023/04/16 11:36:17;;;;;;;28.95;13.40;;;12.90;99.90;;;;;;5075116;28;20065;-54
2023/04/16 11:38:43;;;;;;;34.15;15.27;;;12.70;99.90;;;;;;5094051;27;20321;-55
2023/04/16 11:41:09;;;;;;;31.35;14.70;;;13.10;99.90;;;;;;5093806;27;20356;-53
2023/04/16 11:43:35;;;;;;;31.90;14.45;;;13.10;99.90;;;;;;5093768;28;20431;-53
2023/04/16 11:46:07;;;;;;;25.90;14.40;;;13.30;99.90;;;;;;5094422;27;20035;-53
2023/04/16 11:48:53;;;;;;;31.40;14.85;;;13.60;99.90;;;;;;5093331;27;20143;-55
2023/04/16 11:51:19;;;;;;;27.65;13.95;;;15.30;99.90;;;;;;5094284;28;20067;-54
2023/04/16 11:53:52;;;;;;;33.70;13.70;;;13.90;99.90;;;;;;5093088;27;20111;-54
2023/04/16 11:56:29;;;;;;;32.25;15.32;;;13.90;99.90;;;;;;5095030;28;20048;-54
2023/04/16 11:59:12;;;;;;;31.92;15.02;;;13.70;99.90;;;;;;5095075;27;20138;-54
2023/04/16 12:01:39;;;;;;;38.38;15.55;;;13.80;99.90;;;;;;5058738;28;20141;-54
2023/04/16 12:04:05;;;;;;;30.55;15.38;;;13.40;99.90;;;;;;5093361;28;20035;-54
2023/04/16 12:06:31;;;;;;;32.08;14.77;;;13.60;99.90;;;;;;5093661;27;20048;-53
2023/04/16 12:08:58;;;;;;;30.38;15.68;;;13.70;99.90;;;;;;5094255;27;20519;-53
2023/04/16 12:11:42;;;;;;;34.58;16.92;;;13.60;99.90;;;;;;5093422;28;20051;-52
2023/04/16 12:14:11;;;;;;;30.17;15.82;;;13.70;99.90;;;;;;5092875;27;20055;-54
2023/04/16 12:16:37;;;;;;;34.03;16.60;;;13.70;99.90;;;;;;5093136;28;20048;-54
2023/04/16 12:19:04;;;;;;;27.13;15.23;;;13.70;99.90;;;;;;5093151;28;20517;-53
2023/04/16 12:21:59;;;;;;;31.25;16.02;;;14.10;99.90;;;;;;5094660;27;20119;-53
2023/04/16 12:24:26;;;;;;;23.75;13.63;;;14.00;99.90;;;;;;5072693;28;20079;-54
2023/04/16 12:27:01;;;;;;;29.40;15.25;;;14.20;99.90;;;;;;5094913;28;20072;-53
2023/04/16 12:29:27;;;;;;;31.65;14.60;;;14.00;99.90;;;;;;5093337;27;20047;-54
2023/04/16 12:31:53;;;;;;;22.77;14.45;;;13.80;99.90;;;;;;5092988;28;20810;-53
2023/04/16 12:34:20;;;;;;;25.15;13.02;;;13.80;99.90;;;;;;5092793;28;20134;-53